Aeroporto :
LOGIN :

Iscrizione | Disclaimer

   EN    FR    IT 

 










Sommario :    VFR   VFR Marginale   IFR   IFR Intensivo   IFR Molto Intensivo
Visibilità : 
Base nubi : 
>= 8 km
>= 3000ft
5 / 8 km
1000 / 3000 ft
1500m / 5 km
500 / 1000 ft
800 / 1500m
200 / 500 ft
< 800m
< 200 ft
Simboli :   Temporali  Nebbia  Neve Forte  Precipitazioni Forti  Vento > 20 kt
SIGMETs :   Varie  Temporali  Ghiacco  Turbolenza  Onda orograficha  Ceneri Vulcaniche







- Altitudine del aeroporto : 1363 ft


ETIC - Grafenwohr Army Air Field

ULTIMO METAR :
  • 221956Z AUTO 00000KT 9999 CLR 20/14 A3022 RMK AO2 SLP222 T02020139 $

METARs OBSOLETI :
  • 221856Z AUTO 00000KT 9999 SCT130 25/12 A3021 RMK AO2 SLP217 T02510120 $
  • 221756Z AUTO 31006KT 9999 CLR 27/10 A3020 RMK AO2 SLP214 T02660103 10293 20264 55002 $

TAF TAF ETIC
Valido dal 22 a 14 ore il 23 a 20 ore UTC


221410Z 2214/2320 VRB06KT 9999 OVC170 QNH3019INS
BECMG 2301/2302 VRB06KT 9999 FEW100 QNH3015INS TX29/2214Z TN14/2303Z
Nessun NOTAM noto per questo aeroporto.



MetMap, La meteo Aeronautica in un colpo d'occhio ! - Copyright ORBIFLY Dicembre 2007 - Disclaimer

ORBIFLY MET'MAP TEAM :

Programmazione e sviluppo : Alexandra Zaïnal
Concezione e sviluppo : Baudouin d'Aumeries
Co-Programmazione e sviluppo : Marc-Olivier Méhu
Supporto tecnico e logistico : Manuel Goepfert
Aiuto per la traduzione : Arnaldo La Scala

Contatto : metmap@orbifly.com




FONTI E CREDITI :

   NOAA